createdAt,value
2022-10-27T00:00:04.576Z,1003.32
2022-10-27T00:01:03.670Z,1003.38
2022-10-27T00:02:03.674Z,1003.34
2022-10-27T00:03:03.683Z,1003.37
2022-10-27T00:04:04.555Z,1003.34
2022-10-27T00:05:04.264Z,1003.33
2022-10-27T00:06:03.527Z,1003.25
2022-10-27T00:07:03.153Z,1003.29
2022-10-27T00:08:02.594Z,1003.32
2022-10-27T00:09:03.209Z,1003.37
2022-10-27T00:10:03.740Z,1003.39
2022-10-27T00:11:03.116Z,1003.34
2022-10-27T00:12:03.283Z,1003.34
2022-10-27T00:13:07.737Z,1003.34
2022-10-27T00:14:03.340Z,1003.41
2022-10-27T00:15:04.706Z,1003.40
2022-10-27T00:16:04.591Z,1003.36
2022-10-27T00:17:04.292Z,1003.35
2022-10-27T00:18:04.094Z,1003.30
2022-10-27T00:19:03.396Z,1003.29
2022-10-27T00:21:04.547Z,1003.29
2022-10-27T00:22:03.048Z,1003.24
2022-10-27T00:23:03.528Z,1003.30
2022-10-27T00:24:03.216Z,1003.29
2022-10-27T00:25:03.939Z,1003.29
2022-10-27T00:26:03.081Z,1003.30
2022-10-27T00:27:04.122Z,1003.36
2022-10-27T00:28:03.444Z,1003.30
2022-10-27T00:29:02.433Z,1003.36
2022-10-27T00:30:10.596Z,1003.40
2022-10-27T00:31:02.431Z,1003.40
2022-10-27T00:32:09.315Z,1003.40
2022-10-27T00:33:05.532Z,1003.38
2022-10-27T00:34:04.231Z,1003.37
2022-10-27T00:35:03.588Z,1003.41
2022-10-27T00:36:03.472Z,1003.42
2022-10-27T00:37:04.532Z,1003.46
2022-10-27T00:38:03.105Z,1003.47
2022-10-27T00:39:06.177Z,1003.43
2022-10-27T00:40:03.092Z,1003.53
2022-10-27T00:41:09.332Z,1003.46
2022-10-27T00:42:05.037Z,1003.54
2022-10-27T00:43:02.946Z,1003.52
2022-10-27T00:44:03.540Z,1003.57
2022-10-27T00:45:05.321Z,1003.52
2022-10-27T00:46:04.264Z,1003.57
2022-10-27T00:47:04.047Z,1003.60
2022-10-27T00:48:02.334Z,1003.64
2022-10-27T00:49:05.105Z,1003.67
2022-10-27T00:50:02.372Z,1003.78
2022-10-27T00:51:05.044Z,1003.75
2022-10-27T00:52:04.601Z,1003.83
2022-10-27T00:53:03.583Z,1003.86
2022-10-27T00:54:03.093Z,1003.78
2022-10-27T00:55:07.540Z,1003.85
2022-10-27T00:56:02.212Z,1003.79
2022-10-27T00:57:05.701Z,1003.79
2022-10-27T00:58:03.253Z,1003.86
2022-10-27T00:59:04.793Z,1003.75
2022-10-27T01:00:02.934Z,1003.83
2022-10-27T01:01:04.338Z,1003.84
2022-10-27T01:02:04.102Z,1003.84
2022-10-27T01:03:04.135Z,1003.85
2022-10-27T01:04:03.734Z,1003.84
2022-10-27T01:05:04.631Z,1003.78
2022-10-27T01:06:02.775Z,1003.85
2022-10-27T01:07:03.192Z,1003.73
2022-10-27T01:08:02.095Z,1003.80
2022-10-27T01:09:02.692Z,1003.79
2022-10-27T01:10:04.118Z,1003.85
2022-10-27T01:11:03.124Z,1003.81
2022-10-27T01:12:03.638Z,1003.80
2022-10-27T01:13:02.125Z,1003.80
2022-10-27T01:14:02.100Z,1003.82
2022-10-27T01:15:03.679Z,1003.85
2022-10-27T01:16:02.151Z,1003.82
2022-10-27T01:17:07.567Z,1003.80
2022-10-27T01:18:02.065Z,1003.68
2022-10-27T01:19:03.774Z,1003.84
2022-10-27T01:20:03.240Z,1003.86
2022-10-27T01:21:02.612Z,1003.84
2022-10-27T01:22:03.720Z,1003.79
2022-10-27T01:23:02.819Z,1003.77
2022-10-27T01:24:02.601Z,1003.88
2022-10-27T01:25:05.685Z,1003.90
2022-10-27T01:26:03.399Z,1003.95
2022-10-27T01:27:03.869Z,1003.90
2022-10-27T01:28:02.873Z,1003.88
2022-10-27T01:29:05.546Z,1003.85
2022-10-27T01:30:18.119Z,1003.83
2022-10-27T01:31:02.971Z,1003.80
2022-10-27T01:32:03.614Z,1003.81
2022-10-27T01:33:03.290Z,1003.76
2022-10-27T01:34:02.880Z,1003.80
2022-10-27T01:35:07.191Z,1003.80
2022-10-27T01:36:03.547Z,1003.72
2022-10-27T01:37:09.691Z,1003.76
2022-10-27T01:38:03.247Z,1003.73
2022-10-27T01:39:02.897Z,1003.75
2022-10-27T01:40:28.742Z,1003.71
2022-10-27T01:41:01.795Z,1003.74
2022-10-27T01:42:01.793Z,1003.73
2022-10-27T01:43:01.789Z,1003.67
2022-10-27T01:44:01.848Z,1003.74
2022-10-27T01:45:01.801Z,1003.72
2022-10-27T01:46:01.809Z,1003.74
2022-10-27T01:47:01.775Z,1003.74
2022-10-27T01:48:01.752Z,1003.83
2022-10-27T01:49:01.745Z,1003.83
2022-10-27T01:50:01.742Z,1003.81
2022-10-27T01:51:02.454Z,1003.82
2022-10-27T01:52:01.710Z,1003.78
2022-10-27T01:53:01.709Z,1003.77
2022-10-27T01:54:01.708Z,1003.80
2022-10-27T01:55:01.734Z,1003.73
2022-10-27T01:56:01.714Z,1003.69
2022-10-27T01:57:01.716Z,1003.64
2022-10-27T01:58:01.674Z,1003.76
2022-10-27T01:59:01.676Z,1003.66
2022-10-27T02:00:01.696Z,1003.73
2022-10-27T02:01:01.763Z,1003.71
2022-10-27T02:02:01.638Z,1003.68
2022-10-27T02:03:01.641Z,1003.70
2022-10-27T02:04:01.665Z,1003.72
2022-10-27T02:05:01.617Z,1003.73
2022-10-27T02:06:01.627Z,1003.65
2022-10-27T02:07:01.607Z,1003.68
2022-10-27T02:08:01.609Z,1003.68
2022-10-27T02:09:01.618Z,1003.60
2022-10-27T02:10:01.587Z,1003.62
2022-10-27T02:11:01.605Z,1003.64
2022-10-27T02:12:01.570Z,1003.65
2022-10-27T02:13:01.580Z,1003.62
2022-10-27T02:14:01.548Z,1003.68
2022-10-27T02:15:01.538Z,1003.62
2022-10-27T02:16:01.572Z,1003.64
2022-10-27T02:17:01.523Z,1003.69
2022-10-27T02:18:01.512Z,1003.69
2022-10-27T02:19:01.508Z,1003.73
2022-10-27T02:20:01.491Z,1003.63
2022-10-27T02:21:01.517Z,1003.72
2022-10-27T02:22:01.514Z,1003.71
2022-10-27T02:23:01.478Z,1003.71
2022-10-27T02:24:01.456Z,1003.71
2022-10-27T02:25:01.454Z,1003.79
2022-10-27T02:26:01.469Z,1003.72
2022-10-27T02:27:01.442Z,1003.81
2022-10-27T02:28:01.428Z,1003.79
2022-10-27T02:29:01.432Z,1003.84
2022-10-27T02:30:01.425Z,1003.84
2022-10-27T02:31:01.438Z,1003.85
2022-10-27T02:32:01.410Z,1003.81
2022-10-27T02:33:01.386Z,1003.84
2022-10-27T02:34:01.378Z,1003.80
2022-10-27T02:35:01.375Z,1003.74
2022-10-27T02:36:01.392Z,1003.80
2022-10-27T02:37:01.353Z,1003.69
2022-10-27T02:38:01.353Z,1003.77
2022-10-27T02:39:01.341Z,1003.80
2022-10-27T02:40:01.341Z,1003.83
2022-10-27T02:41:01.367Z,1003.82
2022-10-27T02:42:01.321Z,1003.85
2022-10-27T02:43:01.313Z,1003.80
2022-10-27T02:44:01.302Z,1003.86
2022-10-27T02:45:01.301Z,1003.88
2022-10-27T02:46:01.318Z,1003.81
2022-10-27T02:47:02.114Z,1003.86
2022-10-27T02:48:02.272Z,1003.82
2022-10-27T02:49:01.259Z,1003.90
2022-10-27T02:50:01.283Z,1003.97
2022-10-27T02:51:01.286Z,1003.89
2022-10-27T02:52:01.260Z,1003.95
2022-10-27T02:53:01.241Z,1003.94
2022-10-27T02:54:01.231Z,1003.94
2022-10-27T02:55:01.215Z,1003.95
2022-10-27T02:56:01.234Z,1003.87
2022-10-27T02:57:01.215Z,1003.94
2022-10-27T02:58:01.191Z,1003.95
2022-10-27T02:59:01.190Z,1003.95
2022-10-27T03:00:01.288Z,1003.95
2022-10-27T03:01:01.270Z,1004.00
2022-10-27T03:02:01.244Z,1003.99
2022-10-27T03:03:01.160Z,1003.93
2022-10-27T03:04:01.145Z,1003.99
2022-10-27T03:05:01.141Z,1003.98
2022-10-27T03:06:01.166Z,1003.99
2022-10-27T03:07:01.139Z,1004.04
2022-10-27T03:08:01.153Z,1003.98
2022-10-27T03:09:01.107Z,1004.01
2022-10-27T03:10:01.134Z,1003.97
2022-10-27T03:11:01.132Z,1003.98
2022-10-27T03:12:01.084Z,1004.00
2022-10-27T03:13:01.080Z,1003.93
2022-10-27T03:14:01.070Z,1003.93
2022-10-27T03:15:01.059Z,1003.93
2022-10-27T03:16:01.056Z,1003.88
2022-10-27T03:17:01.077Z,1003.97
2022-10-27T03:18:01.020Z,1003.93
2022-10-27T03:19:02.033Z,1003.99
2022-10-27T03:20:01.029Z,1003.99
2022-10-27T03:21:01.022Z,1004.05
2022-10-27T03:22:01.037Z,1004.02
2022-10-27T03:23:01.005Z,1004.10
2022-10-27T03:24:00.997Z,1004.02
2022-10-27T03:25:00.986Z,1004.07
2022-10-27T03:26:00.988Z,1004.02
2022-10-27T03:27:00.990Z,1003.99
2022-10-27T03:28:00.965Z,1004.01
2022-10-27T03:29:00.953Z,1003.97
2022-10-27T03:30:00.938Z,1003.96
2022-10-27T03:31:00.933Z,1003.98
2022-10-27T03:32:00.956Z,1003.95
2022-10-27T03:33:00.975Z,1004.02
2022-10-27T03:34:00.912Z,1004.04
2022-10-27T03:35:00.910Z,1004.07
2022-10-27T03:36:00.921Z,1004.08
2022-10-27T03:37:00.917Z,1004.00
2022-10-27T03:38:00.896Z,1004.02
2022-10-27T03:39:00.886Z,1003.96
2022-10-27T03:40:00.878Z,1003.97
2022-10-27T03:41:00.862Z,1004.02
2022-10-27T03:42:00.883Z,1004.04
2022-10-27T03:43:00.855Z,1004.04
2022-10-27T03:44:00.845Z,1004.00
2022-10-27T03:45:00.848Z,1004.04
2022-10-27T03:46:01.171Z,1003.95
2022-10-27T03:47:00.851Z,1004.10
2022-10-27T03:48:00.798Z,1003.96
2022-10-27T03:49:01.813Z,1004.04
2022-10-27T03:50:00.793Z,1004.10
2022-10-27T03:51:00.790Z,1004.11
2022-10-27T03:52:00.804Z,1004.04
2022-10-27T03:53:00.777Z,1004.14
2022-10-27T03:54:00.772Z,1004.10
2022-10-27T03:55:00.789Z,1004.12
2022-10-27T03:56:00.762Z,1004.15
2022-10-27T03:57:00.784Z,1004.16
2022-10-27T03:58:00.739Z,1004.10
2022-10-27T03:59:00.734Z,1004.15
2022-10-27T04:00:00.729Z,1004.11
2022-10-27T04:01:00.771Z,1004.09
2022-10-27T04:02:02.333Z,1004.16
2022-10-27T04:03:00.707Z,1004.10
2022-10-27T04:04:00.688Z,1004.18
2022-10-27T04:05:00.684Z,1004.19
2022-10-27T04:06:00.674Z,1004.19
2022-10-27T04:07:00.710Z,1004.17
2022-10-27T04:08:00.657Z,1004.25
2022-10-27T04:09:00.697Z,1004.25
2022-10-27T04:10:00.649Z,1004.18
2022-10-27T04:11:00.657Z,1004.20
2022-10-27T04:12:00.672Z,1004.19
2022-10-27T04:13:00.623Z,1004.20
2022-10-27T04:14:00.622Z,1004.18
2022-10-27T04:15:00.616Z,1004.17
2022-10-27T04:16:00.601Z,1004.19
2022-10-27T04:17:00.624Z,1004.19
2022-10-27T04:18:00.585Z,1004.21
2022-10-27T04:19:00.584Z,1004.19
2022-10-27T04:20:00.567Z,1004.17
2022-10-27T04:21:01.591Z,1004.23
2022-10-27T04:22:00.558Z,1004.18
2022-10-27T04:23:00.546Z,1004.20
2022-10-27T04:24:00.540Z,1004.13
2022-10-27T04:25:00.534Z,1004.16
2022-10-27T04:26:00.562Z,1004.16
2022-10-27T04:27:00.532Z,1004.18
2022-10-27T04:28:00.511Z,1004.20
2022-10-27T04:29:00.502Z,1004.20
2022-10-27T04:30:00.490Z,1004.12
2022-10-27T04:31:00.481Z,1004.16
2022-10-27T04:32:00.497Z,1004.19
2022-10-27T04:33:00.475Z,1004.10
2022-10-27T04:34:00.464Z,1004.19
2022-10-27T04:35:00.473Z,1004.17
2022-10-27T04:36:00.478Z,1004.21
2022-10-27T04:37:00.454Z,1004.22
2022-10-27T04:38:00.439Z,1004.27
2022-10-27T04:39:00.415Z,1004.30
2022-10-27T04:40:00.416Z,1004.28
2022-10-27T04:41:00.442Z,1004.26
2022-10-27T04:42:00.392Z,1004.25
2022-10-27T04:43:00.393Z,1004.29
2022-10-27T04:44:00.382Z,1004.23
2022-10-27T04:45:00.384Z,1004.22
2022-10-27T04:46:00.396Z,1004.30
2022-10-27T04:47:00.354Z,1004.22
2022-10-27T04:48:01.370Z,1004.22
2022-10-27T04:49:00.351Z,1004.18
2022-10-27T04:50:00.397Z,1004.15
2022-10-27T04:51:00.359Z,1004.19
2022-10-27T04:52:00.386Z,1004.29
2022-10-27T04:53:00.309Z,1004.29
2022-10-27T04:54:00.309Z,1004.26
2022-10-27T04:55:00.302Z,1004.31
2022-10-27T04:56:00.316Z,1004.26
2022-10-27T04:57:00.286Z,1004.31
2022-10-27T04:58:01.548Z,1004.22
2022-10-27T04:59:00.263Z,1004.23
2022-10-27T05:00:00.261Z,1004.27
2022-10-27T05:01:00.277Z,1004.24
2022-10-27T05:02:00.402Z,1004.23
2022-10-27T05:03:00.289Z,1004.26
2022-10-27T05:04:00.229Z,1004.28
2022-10-27T05:05:00.221Z,1004.25
2022-10-27T05:06:00.233Z,1004.34
2022-10-27T05:07:00.209Z,1004.27
2022-10-27T05:08:00.200Z,1004.35
2022-10-27T05:09:00.249Z,1004.35
2022-10-27T05:10:00.172Z,1004.34
2022-10-27T05:11:00.192Z,1004.38
2022-10-27T05:12:00.166Z,1004.36
2022-10-27T05:13:00.160Z,1004.38
2022-10-27T05:14:00.147Z,1004.42
2022-10-27T05:15:00.138Z,1004.38
2022-10-27T05:16:00.154Z,1004.39
2022-10-27T05:17:00.178Z,1004.42
2022-10-27T05:18:00.127Z,1004.39
2022-10-27T05:19:00.110Z,1004.48
2022-10-27T05:20:00.104Z,1004.52
2022-10-27T05:21:00.121Z,1004.41
2022-10-27T05:22:00.081Z,1004.46
2022-10-27T05:23:00.084Z,1004.52
2022-10-27T05:24:00.092Z,1004.45
2022-10-27T05:25:00.059Z,1004.42
2022-10-27T05:26:00.123Z,1004.36
2022-10-27T05:27:00.057Z,1004.45
2022-10-27T05:28:00.039Z,1004.46
2022-10-27T05:29:00.034Z,1004.49
2022-10-27T05:30:00.033Z,1004.39
2022-10-27T05:31:00.052Z,1004.45
2022-10-27T05:32:00.002Z,1004.44
2022-10-27T05:32:59.998Z,1004.40
2022-10-27T05:35:00.991Z,1004.40
2022-10-27T05:35:59.975Z,1004.44
2022-10-27T05:36:59.988Z,1004.41
2022-10-27T05:37:59.964Z,1004.41
2022-10-27T05:38:59.953Z,1004.43
2022-10-27T05:39:59.947Z,1004.38
2022-10-27T05:40:59.943Z,1004.45
2022-10-27T05:41:59.977Z,1004.41
2022-10-27T05:42:59.933Z,1004.41
2022-10-27T05:43:59.925Z,1004.36
2022-10-27T05:44:59.913Z,1004.34
2022-10-27T05:45:59.894Z,1004.42
2022-10-27T05:46:59.933Z,1004.35
2022-10-27T05:47:59.884Z,1004.36
2022-10-27T05:48:59.880Z,1004.33
2022-10-27T05:49:59.867Z,1004.32
2022-10-27T05:50:59.863Z,1004.28
2022-10-27T05:51:59.879Z,1004.28
2022-10-27T05:52:59.843Z,1004.28
2022-10-27T05:53:59.843Z,1004.29
2022-10-27T05:54:59.836Z,1004.31
2022-10-27T05:55:59.827Z,1004.27
2022-10-27T05:56:59.844Z,1004.29
2022-10-27T05:57:59.804Z,1004.21
2022-10-27T05:58:59.872Z,1004.27
2022-10-27T06:00:00.813Z,1004.19
2022-10-27T06:00:59.851Z,1004.20
2022-10-27T06:01:59.896Z,1004.23
2022-10-27T06:02:59.767Z,1004.17
2022-10-27T06:03:59.764Z,1004.22
2022-10-27T06:04:59.779Z,1004.19
2022-10-27T06:05:59.754Z,1004.15
2022-10-27T06:06:59.762Z,1004.19
2022-10-27T06:07:59.732Z,1004.23
2022-10-27T06:08:59.725Z,1004.23
2022-10-27T06:09:59.716Z,1004.27
2022-10-27T06:10:59.707Z,1004.30
2022-10-27T06:11:59.722Z,1004.29
2022-10-27T06:12:59.692Z,1004.30
2022-10-27T06:13:59.709Z,1004.29
2022-10-27T06:14:59.676Z,1004.33
2022-10-27T06:15:59.680Z,1004.33
2022-10-27T06:16:59.659Z,1004.32
2022-10-27T06:17:59.649Z,1004.32
2022-10-27T06:18:59.674Z,1004.34
2022-10-27T06:19:59.652Z,1004.29
2022-10-27T06:20:59.625Z,1004.28
2022-10-27T06:21:59.619Z,1004.26
2022-10-27T06:22:59.615Z,1004.33
2022-10-27T06:23:59.661Z,1004.34
2022-10-27T06:24:59.594Z,1004.29
2022-10-27T06:25:59.584Z,1004.27
2022-10-27T06:26:59.589Z,1004.35
2022-10-27T06:27:59.572Z,1004.31
2022-10-27T06:28:59.588Z,1004.34
2022-10-27T06:29:59.554Z,1004.40
2022-10-27T06:30:59.550Z,1004.35
2022-10-27T06:31:59.546Z,1004.40
2022-10-27T06:32:59.538Z,1004.33
2022-10-27T06:33:59.560Z,1004.36
2022-10-27T06:34:59.515Z,1004.38
2022-10-27T06:35:59.544Z,1004.40
2022-10-27T06:36:59.503Z,1004.49
2022-10-27T06:37:59.545Z,1004.46
2022-10-27T06:38:59.510Z,1004.43
2022-10-27T06:39:59.515Z,1004.38
2022-10-27T06:40:59.519Z,1004.42
2022-10-27T06:41:59.493Z,1004.41
2022-10-27T06:43:06.907Z,1004.42
2022-10-27T06:44:01.443Z,1004.38
2022-10-27T06:44:59.431Z,1004.34
2022-10-27T06:46:01.758Z,1004.44
2022-10-27T06:47:00.445Z,1004.41
2022-10-27T06:47:59.434Z,1004.48
2022-10-27T06:48:59.451Z,1004.47
2022-10-27T06:49:59.406Z,1004.41
2022-10-27T06:50:59.396Z,1004.44
2022-10-27T06:51:59.390Z,1004.41
2022-10-27T06:52:59.376Z,1004.47
2022-10-27T06:53:59.390Z,1004.45
2022-10-27T06:54:59.358Z,1004.48
2022-10-27T06:55:59.380Z,1004.54
2022-10-27T06:56:59.344Z,1004.50
2022-10-27T06:57:59.337Z,1004.48
2022-10-27T06:58:59.339Z,1004.58
2022-10-27T06:59:59.331Z,1004.55
2022-10-27T07:00:59.339Z,1004.55
2022-10-27T07:01:59.392Z,1004.59
2022-10-27T07:02:59.421Z,1004.55
2022-10-27T07:03:59.291Z,1004.58
2022-10-27T07:04:59.291Z,1004.58
2022-10-27T07:05:59.300Z,1004.57
2022-10-27T07:06:59.270Z,1004.59
2022-10-27T07:07:59.262Z,1004.60
2022-10-27T07:08:59.257Z,1004.64
2022-10-27T07:09:59.243Z,1004.65
2022-10-27T07:10:59.269Z,1004.62
2022-10-27T07:11:59.240Z,1004.66
2022-10-27T07:12:59.229Z,1004.62
2022-10-27T07:13:59.226Z,1004.69
2022-10-27T07:14:59.206Z,1004.65
2022-10-27T07:15:59.222Z,1004.60
2022-10-27T07:16:59.189Z,1004.62
2022-10-27T07:17:59.796Z,1004.63
2022-10-27T07:18:59.175Z,1004.68
2022-10-27T07:19:59.168Z,1004.59
2022-10-27T07:20:59.186Z,1004.62
2022-10-27T07:21:59.148Z,1004.63
2022-10-27T07:22:59.151Z,1004.71
2022-10-27T07:23:59.137Z,1004.66
2022-10-27T07:24:59.133Z,1004.70
2022-10-27T07:25:59.151Z,1004.61
2022-10-27T07:26:59.112Z,1004.63
2022-10-27T07:27:59.152Z,1004.73
2022-10-27T07:28:59.103Z,1004.70
2022-10-27T07:29:59.089Z,1004.75
2022-10-27T07:30:59.115Z,1004.81
2022-10-27T07:31:59.084Z,1004.83
2022-10-27T07:32:59.079Z,1004.90
2022-10-27T07:33:59.112Z,1004.89
2022-10-27T07:34:59.070Z,1004.87
2022-10-27T07:35:59.074Z,1004.89
2022-10-27T07:36:59.044Z,1004.99
2022-10-27T07:37:59.029Z,1004.86
2022-10-27T07:38:59.022Z,1005.02
2022-10-27T07:40:33.337Z,1004.93
2022-10-27T07:40:59.011Z,1004.98
2022-10-27T07:41:59.093Z,1005.04
2022-10-27T07:43:00.710Z,1005.02
2022-10-27T07:43:58.989Z,1005.02
2022-10-27T07:44:58.990Z,1005.04
2022-10-27T07:45:59.036Z,1005.06
2022-10-27T07:46:58.966Z,1005.02
2022-10-27T07:47:58.956Z,1004.94
2022-10-27T07:48:58.981Z,1004.93
2022-10-27T07:49:58.941Z,1004.93
2022-10-27T07:50:58.970Z,1004.95
2022-10-27T07:51:58.953Z,1004.98
2022-10-27T07:52:58.927Z,1005.05
2022-10-27T07:53:58.946Z,1005.05
2022-10-27T07:54:58.911Z,1005.02
2022-10-27T07:55:58.932Z,1004.98
2022-10-27T07:56:58.900Z,1004.99
2022-10-27T07:57:58.884Z,1004.98
2022-10-27T07:58:58.940Z,1004.91
2022-10-27T07:59:58.861Z,1004.97
2022-10-27T08:00:58.928Z,1004.96
2022-10-27T08:01:58.957Z,1004.97
2022-10-27T08:02:58.857Z,1004.97
2022-10-27T08:03:58.855Z,1005.06
2022-10-27T08:04:58.834Z,1004.99
2022-10-27T08:05:58.847Z,1005.01
2022-10-27T08:06:58.817Z,1005.09
2022-10-27T08:07:58.801Z,1005.01
2022-10-27T08:08:58.798Z,1005.03
2022-10-27T08:09:58.811Z,1005.05
2022-10-27T08:10:58.803Z,1005.08
2022-10-27T08:11:58.766Z,1005.05
2022-10-27T08:12:58.760Z,1004.98
2022-10-27T08:13:58.791Z,1005.04
2022-10-27T08:14:58.757Z,1005.00
2022-10-27T08:15:58.780Z,1005.00
2022-10-27T08:17:01.312Z,1005.05
2022-10-27T08:17:59.776Z,1005.03
2022-10-27T08:18:58.728Z,1005.02
2022-10-27T08:19:58.715Z,1005.00
2022-10-27T08:20:58.799Z,1005.00
2022-10-27T08:21:58.694Z,1004.94
2022-10-27T08:22:58.683Z,1005.05
2022-10-27T08:23:58.718Z,1005.10
2022-10-27T08:24:58.668Z,1005.13
2022-10-27T08:25:58.726Z,1005.06
2022-10-27T08:26:58.661Z,1005.04
2022-10-27T08:27:58.642Z,1005.09
2022-10-27T08:28:58.635Z,1005.09
2022-10-27T08:29:58.632Z,1005.03
2022-10-27T08:30:58.694Z,1005.05
2022-10-27T08:31:58.613Z,1005.06
2022-10-27T08:32:58.615Z,1005.03
2022-10-27T08:33:58.604Z,1004.97
2022-10-27T08:34:58.601Z,1005.08
2022-10-27T08:35:58.651Z,1004.99
2022-10-27T08:36:58.593Z,1004.96
2022-10-27T08:37:58.585Z,1004.99
2022-10-27T08:38:58.561Z,1005.06
2022-10-27T08:39:58.555Z,1004.98
2022-10-27T08:40:58.761Z,1004.99
2022-10-27T08:41:58.552Z,1004.94
2022-10-27T08:42:58.549Z,1004.98
2022-10-27T08:43:58.542Z,1005.01
2022-10-27T08:44:58.551Z,1004.98
2022-10-27T08:45:58.548Z,1004.95
2022-10-27T08:46:58.512Z,1005.01
2022-10-27T08:47:58.514Z,1004.92
2022-10-27T08:48:58.490Z,1004.95
2022-10-27T08:49:58.494Z,1004.91
2022-10-27T08:50:58.499Z,1004.95
2022-10-27T08:51:58.472Z,1004.95
2022-10-27T08:53:01.105Z,1004.90
2022-10-27T08:54:00.457Z,1004.87
2022-10-27T08:54:58.448Z,1004.97
2022-10-27T08:55:58.464Z,1004.95
2022-10-27T08:56:58.429Z,1004.99
2022-10-27T08:57:58.424Z,1004.97
2022-10-27T08:58:58.412Z,1004.98
2022-10-27T08:59:58.404Z,1004.95
2022-10-27T09:00:58.421Z,1004.93
2022-10-27T09:01:58.498Z,1004.93
2022-10-27T09:02:58.388Z,1004.86
2022-10-27T09:03:58.367Z,1004.85
2022-10-27T09:04:58.363Z,1004.90
2022-10-27T09:05:58.386Z,1004.92
2022-10-27T09:06:58.345Z,1004.89
2022-10-27T09:07:58.335Z,1004.90
2022-10-27T09:08:58.326Z,1004.85
2022-10-27T09:09:58.323Z,1004.73
2022-10-27T09:10:59.182Z,1004.78
2022-10-27T09:11:58.307Z,1004.71
2022-10-27T09:12:58.297Z,1004.82
2022-10-27T09:13:58.283Z,1004.72
2022-10-27T09:14:58.308Z,1004.75
2022-10-27T09:15:58.272Z,1004.72
2022-10-27T09:16:58.260Z,1004.70
2022-10-27T09:17:58.255Z,1004.64
2022-10-27T09:18:58.238Z,1004.64
2022-10-27T09:19:59.270Z,1004.65
2022-10-27T09:20:58.292Z,1004.67
2022-10-27T09:21:58.225Z,1004.62
2022-10-27T09:22:58.217Z,1004.64
2022-10-27T09:23:58.213Z,1004.63
2022-10-27T09:24:58.227Z,1004.71
2022-10-27T09:25:58.192Z,1004.62
2022-10-27T09:26:58.188Z,1004.66
2022-10-27T09:27:58.178Z,1004.66
2022-10-27T09:28:58.169Z,1004.66
2022-10-27T09:30:00.608Z,1004.62
2022-10-27T09:30:58.159Z,1004.67
2022-10-27T09:31:58.150Z,1004.69
2022-10-27T09:32:58.130Z,1004.68
2022-10-27T09:33:59.142Z,1004.70
2022-10-27T09:34:58.142Z,1004.69
2022-10-27T09:35:58.141Z,1004.61
2022-10-27T09:36:58.106Z,1004.57
2022-10-27T09:37:58.095Z,1004.63
2022-10-27T09:38:58.100Z,1004.54
2022-10-27T09:39:58.082Z,1004.62
2022-10-27T09:40:58.143Z,1004.63
2022-10-27T09:41:58.067Z,1004.52
2022-10-27T09:42:58.065Z,1004.56
2022-10-27T09:43:58.921Z,1004.54
2022-10-27T09:44:58.077Z,1004.51
2022-10-27T09:45:58.038Z,1004.49
2022-10-27T09:46:58.028Z,1004.52
2022-10-27T09:47:58.019Z,1004.54
2022-10-27T09:48:58.015Z,1004.56
2022-10-27T09:49:58.033Z,1004.65
2022-10-27T09:50:58.007Z,1004.64
2022-10-27T09:51:58.039Z,1004.63
2022-10-27T09:52:57.985Z,1004.59
2022-10-27T09:53:57.972Z,1004.63
2022-10-27T09:54:59.004Z,1004.62
2022-10-27T09:55:57.961Z,1004.53
2022-10-27T09:56:57.957Z,1004.58
2022-10-27T09:57:57.946Z,1004.55
2022-10-27T09:58:57.963Z,1004.51
2022-10-27T09:59:57.965Z,1004.51
2022-10-27T10:00:57.928Z,1004.48
2022-10-27T10:01:57.938Z,1004.55
2022-10-27T10:02:57.988Z,1004.48
2022-10-27T10:04:57.923Z,1004.46
2022-10-27T10:05:57.886Z,1004.49
2022-10-27T10:06:57.891Z,1004.54
2022-10-27T10:07:57.870Z,1004.47
2022-10-27T10:08:57.864Z,1004.42
2022-10-27T10:09:57.855Z,1004.45
2022-10-27T10:10:57.873Z,1004.47
2022-10-27T10:11:57.950Z,1004.42
2022-10-27T10:12:57.834Z,1004.39
2022-10-27T10:13:57.816Z,1004.35
2022-10-27T10:14:57.809Z,1004.38
2022-10-27T10:15:57.836Z,1004.37
2022-10-27T10:16:57.804Z,1004.43
2022-10-27T10:17:57.812Z,1004.34
2022-10-27T10:18:57.789Z,1004.34
2022-10-27T10:19:57.830Z,1004.35
2022-10-27T10:20:57.790Z,1004.38
2022-10-27T10:21:57.754Z,1004.33
2022-10-27T10:22:57.755Z,1004.35
2022-10-27T10:23:57.749Z,1004.28
2022-10-27T10:24:57.747Z,1004.27
2022-10-27T10:25:57.767Z,1004.33
2022-10-27T10:26:57.718Z,1004.29
2022-10-27T10:27:57.724Z,1004.28
2022-10-27T10:28:57.723Z,1004.27
2022-10-27T10:29:57.704Z,1004.28
2022-10-27T10:30:57.731Z,1004.21
2022-10-27T10:31:57.694Z,1004.25
2022-10-27T10:32:57.676Z,1004.29
2022-10-27T10:33:57.674Z,1004.26
2022-10-27T10:34:57.681Z,1004.24
2022-10-27T10:35:57.677Z,1004.25
2022-10-27T10:36:57.646Z,1004.28
2022-10-27T10:38:01.504Z,1004.28
2022-10-27T10:38:58.643Z,1004.24
2022-10-27T10:39:57.630Z,1004.34
2022-10-27T10:40:57.655Z,1004.21
2022-10-27T10:41:57.623Z,1004.21
2022-10-27T10:42:57.604Z,1004.17
2022-10-27T10:43:57.588Z,1004.23
2022-10-27T10:44:57.616Z,1004.16
2022-10-27T10:45:57.679Z,1004.18
2022-10-27T10:46:57.575Z,1004.21
2022-10-27T10:47:57.581Z,1004.16
2022-10-27T10:48:57.600Z,1004.12
2022-10-27T10:49:57.573Z,1004.14
2022-10-27T10:50:57.959Z,1004.11
2022-10-27T10:51:57.536Z,1004.09
2022-10-27T10:52:57.534Z,1004.04
2022-10-27T10:53:57.542Z,1003.99
2022-10-27T10:54:57.521Z,1004.14
2022-10-27T10:55:57.558Z,1004.04
2022-10-27T10:56:57.567Z,1004.00
2022-10-27T10:57:57.489Z,1004.03
2022-10-27T10:58:57.503Z,1004.01
2022-10-27T10:59:57.491Z,1004.09
2022-10-27T11:00:57.609Z,1004.02
2022-10-27T11:01:57.504Z,1004.00
2022-10-27T11:02:59.260Z,1004.02
2022-10-27T11:03:57.439Z,1004.03
2022-10-27T11:04:57.429Z,1004.03
2022-10-27T11:05:57.467Z,1004.03
2022-10-27T11:06:57.429Z,1003.92
2022-10-27T11:07:57.409Z,1003.88
2022-10-27T11:08:57.409Z,1003.90
2022-10-27T11:09:57.408Z,1003.93
2022-10-27T11:10:57.386Z,1003.89
2022-10-27T11:11:57.419Z,1003.93
2022-10-27T11:12:57.370Z,1003.81
2022-10-27T11:13:57.370Z,1003.86
2022-10-27T11:14:57.378Z,1003.84
2022-10-27T11:15:57.343Z,1003.79
2022-10-27T11:16:57.365Z,1003.80
2022-10-27T11:17:57.337Z,1003.69
2022-10-27T11:18:57.319Z,1003.78
2022-10-27T11:19:57.426Z,1003.75
2022-10-27T11:20:57.308Z,1003.72
2022-10-27T11:21:57.336Z,1003.65
2022-10-27T11:22:57.286Z,1003.75
2022-10-27T11:23:57.285Z,1003.66
2022-10-27T11:24:57.274Z,1003.66
2022-10-27T11:25:57.291Z,1003.66
2022-10-27T11:26:57.261Z,1003.65
2022-10-27T11:27:57.249Z,1003.62
2022-10-27T11:28:57.247Z,1003.64
2022-10-27T11:29:57.316Z,1003.59
2022-10-27T11:31:00.283Z,1003.56
2022-10-27T11:31:57.222Z,1003.60
2022-10-27T11:32:57.220Z,1003.58
2022-10-27T11:33:57.234Z,1003.53
2022-10-27T11:34:57.195Z,1003.52
2022-10-27T11:35:57.225Z,1003.56
2022-10-27T11:36:57.189Z,1003.52
2022-10-27T11:37:57.546Z,1003.40
2022-10-27T11:38:57.163Z,1003.40
2022-10-27T11:39:57.150Z,1003.44
2022-10-27T11:40:57.174Z,1003.34
2022-10-27T11:41:57.145Z,1003.35
2022-10-27T11:42:57.155Z,1003.36
2022-10-27T11:44:02.111Z,1003.29
2022-10-27T11:44:59.113Z,1003.31
2022-10-27T11:45:57.135Z,1003.29
2022-10-27T11:46:57.105Z,1003.23
2022-10-27T11:47:57.098Z,1003.30
2022-10-27T11:48:57.093Z,1003.18
2022-10-27T11:49:57.076Z,1003.25
2022-10-27T11:50:57.094Z,1003.25
2022-10-27T11:51:57.085Z,1003.17
2022-10-27T11:52:57.061Z,1003.19
2022-10-27T11:53:57.053Z,1003.19
2022-10-27T11:54:57.064Z,1003.14
2022-10-27T11:55:57.062Z,1003.16
2022-10-27T11:56:57.053Z,1003.11
2022-10-27T11:57:57.368Z,1003.06
2022-10-27T11:58:57.007Z,1003.10
2022-10-27T11:59:56.994Z,1002.98
2022-10-27T12:00:57.012Z,1002.93
2022-10-27T12:01:57.365Z,1002.98
2022-10-27T12:02:57.084Z,1002.95
2022-10-27T12:03:57.207Z,1002.93
2022-10-27T12:04:56.961Z,1002.96
2022-10-27T12:05:57.786Z,1002.90
2022-10-27T12:06:56.973Z,1002.94
2022-10-27T12:07:56.936Z,1002.95